Řízení letového provozu České republiky  
Aktualizace dat:  16.04.2024 08:19:39 UTC English version
   METEO Zobrazení stránky:  16.04.2024 08:20:00 UTC  
vysvětlivky
METAR EDAC 160750Z 22011KT 190V250 9999 FEW035 OVC040 07/00 Q1002=
METAR EDDB 160750Z AUTO 24017KT 9999 BKN027 BKN031 OVC045 07/03 Q0999 TEMPO 25015G25KT=
METAR EDDC 160750Z AUTO 26012KT 230V310 9999 SCT036 BKN045 08/M01 Q1002 TEMPO 26020G30KT=
METAR EDDE 160750Z AUTO 24021KT 9999 BKN028 BKN033 06/00 Q1001 TEMPO 24020G30KT=
METAR EDDF 160750Z AUTO 21017KT 9999 BKN023 BKN032 08/03 Q1005 TEMPO 21020G30KT SHRA=
METAR EDDM 160750Z AUTO 25019KT 9999 FEW020 06/01 Q1009 BECMG 25020G30KT=
METAR EDDN 160750Z AUTO 25015G27KT 210V270 9999 BKN025 BKN031 07/01 Q1006 TEMPO 25020G35KT=
METAR EDDP 160750Z AUTO 24020KT 9999 BKN032 08/01 Q1001 TEMPO 24020G30KT=
METAR EDQM 160750Z 25017G28KT 210V280 9999 SCT018 BKN027 BKN035 03/M00 Q1003=
METAR EPBY 160800Z 25020KT 9999 -SHRA SCT024CB BKN032 07/02 Q0997=
METAR EPGD 160800Z 26014KT 9999 SCT005 BKN009 02/01 Q0993=
METAR EPKK 160800Z 28010KT 9999 FEW030 08/02 Q1003=
METAR EPKT 160800Z 27017G28KT 9999 FEW032 07/M00 Q1003=
METAR EPLB 160800Z 28017KT 9999 SCT024 SCT030 10/06 Q1000=
METAR EPLL 160800Z 25020KT 9999 FEW029 BKN038 07/00 Q1000=
METAR EPMO 160800Z 25024KT 9999 SCT028 BKN039 07/02 Q0998=
METAR EPPO 160800Z 23012KT 9999 BKN023 07/02 Q0999=
METAR EPRZ 160800Z 25012KT 9999 -SHRA BKN030CB 11/08 Q1002=
METAR EPWA 160800Z 27018KT 9999 BKN030 08/02 Q0999 NOSIG=
METAR EPWR 160800Z 26015KT 9999 FEW036 09/M00 Q1002=
METAR LHBP 160800Z 34013KT 7000 RA SCT008 OVC050 09/07 Q1006 BECMG -RA=
METAR LHPR 160745Z AUTO 31018KT 9999 RA FEW012 OVC019 07/04 Q1007 NOSIG=
METAR LHSM 160745Z AUTO 35015KT 320V020 8000 -RA BKN013 08/06 Q1007 BECMG RA=
SPECI LKBC 160810Z AUTO 26016G28KT //// // OVC030 06/00 Q1005=
METAR LKCR 160800Z AUTO 26016KT 9999 BKN160 08/01 Q1004=
SPECI LKCS 160803Z AUTO 28014G24KT 9999 FEW034/// 07/00 Q1005=
METAR LKCV 160800Z 25019KT 9999 FEW034 BKN160 09/00 Q1004 NOSIG RMK BLU BLU=
METAR LKKB 160800Z 23016KT 9999 BKN030 BKN039 07/00 Q1003 NOSIG RMK BLU BLU=
METAR LKKU 160800Z 26006KT CAVOK 08/01 Q1006=
METAR LKKV 160800Z 25011KT 210V290 9999 SCT024 BKN031 03/M02 Q1003=
METAR LKLN 160800Z AUTO 26010G20KT 210V300 9999 // FEW018 BKN024 06/01 Q1006=
METAR LKMT 160800Z 24011KT 9999 FEW033 07/00 Q1004 NOSIG=
METAR LKNA 160800Z 28007KT 240V310 9999 BKN039 06/M01 Q1005 NOSIG RMK BLU BLU=
METAR LKPD 160800Z 25016KT 9999 SCT030 BKN150 08/00 Q1004 NOSIG RMK BLU BLU=
METAR LKPJ 160800Z AUTO 24009KT 9999 // BKN046/// 08/00 Q1005=
SPECI LKPR 160814Z 24024G34KT 9999 FEW024 07/00 Q1003=
METAR LKTB 160800Z 24007KT 9999 FEW045 08/M01 Q1005 NOSIG=
METAR LKTH 160800Z AUTO VRB06KT 9999 BKN026 BKN150 05/M01 Q1003=
METAR LKVO 160800Z 25016G26KT 9999 -SHRA FEW030 SCT035 BKN049 07/01 Q1004=
METAR LOWG 160750Z AUTO 36013KT 4900 SHRA FEW030 BKN034 05/03 Q1005 RESHRA TEMPO 6000 -SHRA=
METAR LOWI 160750Z VRB04KT 9999 FEW020 SCT030 BKN045 07/01 Q1009 TEMPO SHRA=
METAR LOWK 160750Z AUTO 01019G29KT 9999 -RA FEW036 BKN040 08/03 Q1002 RESHRA TEMPO SHRA=
METAR LOWL 160750Z AUTO 25017KT 9999 FEW026 BKN036 07/02 Q1008 NOSIG=
METAR LOWS 160750Z AUTO 26007KT 220V300 9999 FEW015 SCT025 BKN045 06/01 Q1010 TEMPO SHRA=
METAR LOWW 160750Z 29018KT 9999 -RA FEW020 BKN026 06/02 Q1008 RERA NOSIG=
METAR LOXT 160750Z 25015KT 30KM FEW045SC BKN060SC BKN070SC 07/03 Q1007 NOSIG RMK BKN=
METAR COR LOXZ 160750Z 20003KT 160V230 4000 RA FEW004 SCT007 BKN012 02/01 Q1006 NOSIG=
METAR LZIB 160800Z 29011KT 9999 -RA FEW008 SCT024 BKN031 06/04 Q1008 NOSIG=
METAR LZKZ 160800Z 18005KT 9999 -RA FEW015 11/10 Q1003 NOSIG=
METAR LZMC 160800Z 27006KT 9999 -RA FEW009 OVC027 06/04 Q1008=
METAR LZPP 160800Z 28013KT 9999 -RA SCT030 BKN038 07/03 Q1007=
METAR LZSL 160800Z 26010KT 9999 -RA FEW020 BKN031 OVC050 07/05 Q1005=
METAR LZTT 160800Z 25010KT 9999 -RA FEW013 SCT033 BKN053 06/04 Q1003 NOSIG=
METAR LZZI 160800Z 28007KT 9999 FEW046 BKN055 07/02 Q1005=